createdAt,value
2018-10-12T00:00:00.336Z,10.40
2018-10-12T00:02:28.312Z,10.50
2018-10-12T00:04:56.415Z,10.60
2018-10-12T00:07:24.440Z,10.60
2018-10-12T00:09:52.511Z,10.60
2018-10-12T00:12:20.633Z,10.60
2018-10-12T00:14:48.597Z,10.60
2018-10-12T00:17:16.560Z,10.60
2018-10-12T00:19:44.505Z,10.50
2018-10-12T00:22:12.472Z,10.50
2018-10-12T00:24:40.433Z,10.50
2018-10-12T00:27:08.513Z,10.50
2018-10-12T00:29:36.622Z,10.40
2018-10-12T00:32:04.774Z,10.40
2018-10-12T00:34:32.812Z,10.30
2018-10-12T00:37:00.852Z,10.30
2018-10-12T00:39:28.849Z,10.20
2018-10-12T00:41:56.740Z,10.20
2018-10-12T00:44:24.726Z,10.20
2018-10-12T00:46:52.758Z,10.20
2018-10-12T00:49:20.823Z,10.10
2018-10-12T00:51:48.951Z,10.10
2018-10-12T00:54:17.018Z,10.10
2018-10-12T00:56:45.047Z,10.00
2018-10-12T00:59:12.970Z,10.00
2018-10-12T01:01:40.864Z,10.00
2018-10-12T01:04:09.099Z,10.00
2018-10-12T01:06:37.197Z,10.00
2018-10-12T01:09:06.039Z,9.90
2018-10-12T01:11:34.143Z,9.90
2018-10-12T01:14:02.340Z,10.00
2018-10-12T01:16:30.400Z,9.90
2018-10-12T01:18:58.446Z,9.90
2018-10-12T01:21:26.433Z,9.90
2018-10-12T01:23:54.501Z,9.90
2018-10-12T01:26:22.723Z,9.90
2018-10-12T01:28:54.391Z,9.80
2018-10-12T01:31:22.676Z,9.80
2018-10-12T01:33:50.734Z,9.80
2018-10-12T01:36:19.753Z,9.90
2018-10-12T01:38:47.871Z,9.90
2018-10-12T01:41:15.926Z,9.80
2018-10-12T01:43:44.077Z,9.80
2018-10-12T01:46:12.092Z,9.80
2018-10-12T01:48:40.166Z,9.80
2018-10-12T01:51:08.326Z,9.80
2018-10-12T01:53:36.323Z,9.70
2018-10-12T01:56:05.317Z,9.70
2018-10-12T01:58:33.829Z,9.70
2018-10-12T02:01:01.830Z,9.70
2018-10-12T02:03:29.954Z,9.80
2018-10-12T02:05:58.135Z,9.80
2018-10-12T02:08:26.126Z,9.80
2018-10-12T02:10:54.148Z,9.80
2018-10-12T02:13:22.265Z,9.80
2018-10-12T02:15:50.366Z,9.90
2018-10-12T02:18:18.388Z,9.90
2018-10-12T02:20:46.471Z,9.90
2018-10-12T02:23:14.785Z,9.90
2018-10-12T02:25:42.853Z,9.90
2018-10-12T02:28:11.059Z,9.80
2018-10-12T02:30:39.091Z,9.90
2018-10-12T02:33:07.126Z,9.90
2018-10-12T02:35:35.121Z,9.90
2018-10-12T02:38:03.122Z,9.90
2018-10-12T02:40:31.107Z,9.90
2018-10-12T02:42:59.274Z,9.90
2018-10-12T02:45:27.334Z,9.90
2018-10-12T02:47:55.489Z,9.90
2018-10-12T02:50:23.600Z,9.90
2018-10-12T02:52:51.600Z,9.90
2018-10-12T02:55:19.597Z,9.90
2018-10-12T02:57:47.553Z,9.90
2018-10-12T03:00:17.737Z,9.90
2018-10-12T03:02:50.042Z,9.90
2018-10-12T03:05:18.175Z,9.90
2018-10-12T03:07:46.277Z,9.90
2018-10-12T03:10:14.371Z,9.90
2018-10-12T03:12:42.407Z,10.00
2018-10-12T03:15:10.488Z,10.00
2018-10-12T03:17:38.655Z,10.00
2018-10-12T03:20:06.743Z,10.00
2018-10-12T03:22:34.756Z,10.00
2018-10-12T03:25:02.919Z,10.10
2018-10-12T03:27:35.500Z,10.00
2018-10-12T03:30:03.633Z,10.00
2018-10-12T03:32:31.867Z,10.00
2018-10-12T03:34:59.983Z,10.00
2018-10-12T03:37:28.079Z,10.00
2018-10-12T03:39:56.170Z,10.10
2018-10-12T03:42:24.199Z,10.10
2018-10-12T03:44:52.271Z,10.10
2018-10-12T03:47:20.316Z,10.10
2018-10-12T03:49:48.540Z,10.10
2018-10-12T03:52:16.635Z,10.10
2018-10-12T03:54:44.640Z,10.10
2018-10-12T03:57:13.471Z,10.10
2018-10-12T03:59:41.387Z,10.20
2018-10-12T04:02:09.333Z,10.20
2018-10-12T04:04:37.522Z,10.20
2018-10-12T04:07:05.576Z,10.30
2018-10-12T04:09:33.539Z,10.30
2018-10-12T04:12:01.641Z,10.30
2018-10-12T04:14:29.632Z,10.30
2018-10-12T04:16:57.571Z,10.30
2018-10-12T04:19:32.032Z,10.20
2018-10-12T04:22:00.010Z,10.20
2018-10-12T04:24:27.975Z,10.30
2018-10-12T04:26:55.979Z,10.30
2018-10-12T04:29:23.990Z,10.30
2018-10-12T04:31:52.060Z,10.30
2018-10-12T04:34:20.161Z,10.30
2018-10-12T04:36:48.498Z,10.30
2018-10-12T04:39:27.574Z,10.30
2018-10-12T04:41:55.745Z,10.30
2018-10-12T04:44:23.860Z,10.40
2018-10-12T04:46:52.159Z,10.40
2018-10-12T04:49:20.295Z,10.40
2018-10-12T04:51:52.428Z,10.40
2018-10-12T04:54:21.197Z,10.50
2018-10-12T04:56:49.634Z,10.60
2018-10-12T04:59:17.999Z,10.60
2018-10-12T05:01:46.094Z,10.60
2018-10-12T05:04:14.117Z,10.60
2018-10-12T05:06:42.376Z,10.60
2018-10-12T05:09:11.366Z,10.70
2018-10-12T05:11:39.576Z,10.60
2018-10-12T05:14:08.186Z,10.60
2018-10-12T05:16:36.441Z,10.70
2018-10-12T05:19:04.537Z,10.70
2018-10-12T05:21:32.767Z,10.70
2018-10-12T05:24:01.140Z,10.70
2018-10-12T05:26:29.216Z,10.70
2018-10-12T05:28:57.446Z,10.80
2018-10-12T05:31:25.515Z,10.70
2018-10-12T05:33:53.549Z,10.80
2018-10-12T05:36:21.627Z,10.80
2018-10-12T05:38:49.610Z,10.80
2018-10-12T05:41:17.799Z,10.80
2018-10-12T05:43:45.934Z,10.80
2018-10-12T05:46:14.078Z,10.80
2018-10-12T05:48:53.261Z,10.80
2018-10-12T05:51:21.565Z,10.90
2018-10-12T05:53:50.784Z,10.90
2018-10-12T05:56:25.868Z,10.90
2018-10-12T05:58:54.146Z,11.00
2018-10-12T06:01:22.251Z,11.00
2018-10-12T06:03:50.366Z,11.00
2018-10-12T06:06:18.420Z,11.00
2018-10-12T06:08:46.503Z,11.10
2018-10-12T06:11:14.472Z,11.10
2018-10-12T06:13:42.538Z,11.10
2018-10-12T06:16:10.803Z,11.10
2018-10-12T06:18:38.711Z,11.20
2018-10-12T06:21:07.094Z,11.20
2018-10-12T06:23:35.190Z,11.30
2018-10-12T06:26:03.304Z,11.30
2018-10-12T06:28:31.313Z,11.40
2018-10-12T06:30:59.285Z,11.50
2018-10-12T06:33:27.259Z,11.50
2018-10-12T06:35:55.585Z,11.60
2018-10-12T06:38:23.687Z,11.70
2018-10-12T06:40:51.824Z,11.80
2018-10-12T06:43:19.980Z,11.80
2018-10-12T06:45:48.210Z,11.80
2018-10-12T06:48:16.254Z,11.80
2018-10-12T06:50:44.391Z,11.80
2018-10-12T06:53:13.064Z,11.80
2018-10-12T06:55:41.119Z,11.80
2018-10-12T06:58:09.649Z,11.90
2018-10-12T07:00:37.901Z,11.90
2018-10-12T07:03:06.189Z,11.90
2018-10-12T07:05:34.369Z,12.00
2018-10-12T07:08:02.458Z,12.10
2018-10-12T07:10:30.570Z,12.10
2018-10-12T07:12:58.848Z,12.10
2018-10-12T07:15:26.822Z,12.10
2018-10-12T07:17:54.963Z,12.30
2018-10-12T07:20:22.990Z,12.50
2018-10-12T07:22:51.090Z,12.70
2018-10-12T07:25:19.215Z,12.80
2018-10-12T07:27:47.530Z,12.80
2018-10-12T07:30:15.428Z,12.80
2018-10-12T07:32:43.604Z,12.80
2018-10-12T07:35:11.742Z,12.70
2018-10-12T07:37:39.708Z,12.70
2018-10-12T07:40:07.767Z,12.70
2018-10-12T07:42:35.808Z,12.70
2018-10-12T07:45:04.426Z,12.70
2018-10-12T07:47:32.540Z,12.80
2018-10-12T07:50:00.859Z,12.80
2018-10-12T07:52:28.956Z,12.90
2018-10-12T07:54:57.008Z,12.90
2018-10-12T07:57:28.947Z,12.90
2018-10-12T07:59:57.476Z,13.00
2018-10-12T08:02:25.550Z,13.10
2018-10-12T08:04:53.647Z,13.10
2018-10-12T08:07:21.778Z,13.10
2018-10-12T08:09:49.889Z,13.10
2018-10-12T08:12:17.971Z,13.20
2018-10-12T08:14:45.956Z,13.10
2018-10-12T08:17:14.196Z,13.20
2018-10-12T08:19:42.481Z,13.20
2018-10-12T08:22:10.541Z,13.30
2018-10-12T08:24:38.738Z,13.40
2018-10-12T08:27:07.062Z,13.40
2018-10-12T08:29:35.174Z,13.50
2018-10-12T08:32:03.256Z,13.50
2018-10-12T08:34:31.308Z,13.50
2018-10-12T08:36:59.245Z,13.60
2018-10-12T08:39:27.482Z,13.70
2018-10-12T08:41:55.705Z,13.80
2018-10-12T08:44:24.002Z,13.90
2018-10-12T08:46:52.056Z,14.00
2018-10-12T08:49:20.114Z,14.10
2018-10-12T08:51:48.379Z,14.20
2018-10-12T08:54:16.458Z,14.30
2018-10-12T08:56:44.515Z,14.30
2018-10-12T08:59:12.541Z,14.30
2018-10-12T09:01:40.648Z,14.30
2018-10-12T09:04:08.678Z,14.40
2018-10-12T09:06:36.970Z,14.40
2018-10-12T09:09:08.476Z,14.40
2018-10-12T09:11:37.253Z,14.50
2018-10-12T09:14:05.395Z,14.50
2018-10-12T09:16:33.525Z,14.60
2018-10-12T09:19:01.583Z,14.60
2018-10-12T09:21:29.742Z,14.70
2018-10-12T09:23:57.871Z,14.80
2018-10-12T09:26:26.305Z,14.80
2018-10-12T09:28:54.322Z,14.80
2018-10-12T09:31:22.531Z,14.90
2018-10-12T09:33:50.587Z,14.90
2018-10-12T09:36:18.699Z,15.00
2018-10-12T09:38:46.651Z,15.00
2018-10-12T09:41:14.615Z,15.20
2018-10-12T09:43:42.703Z,15.30
2018-10-12T09:46:10.837Z,15.30
2018-10-12T09:48:39.000Z,15.40
2018-10-12T09:51:07.202Z,15.40
2018-10-12T09:53:35.307Z,15.40
2018-10-12T09:56:03.608Z,15.40
2018-10-12T09:58:31.734Z,15.50
2018-10-12T10:01:05.426Z,15.50
2018-10-12T10:03:39.257Z,15.50
2018-10-12T10:06:07.373Z,15.50
2018-10-12T10:08:36.048Z,15.60
2018-10-12T10:11:03.717Z,15.60
2018-10-12T10:13:32.455Z,15.60
2018-10-12T10:16:00.577Z,15.70
2018-10-12T10:18:28.527Z,15.70
2018-10-12T10:20:56.689Z,15.70
2018-10-12T10:23:24.815Z,15.70
2018-10-12T10:25:53.105Z,15.70
2018-10-12T10:28:21.299Z,15.80
2018-10-12T10:30:49.569Z,16.00
2018-10-12T10:33:17.721Z,16.10
2018-10-12T10:35:46.762Z,16.00
2018-10-12T10:38:14.918Z,16.00
2018-10-12T10:40:42.930Z,16.00
2018-10-12T10:43:10.930Z,16.00
2018-10-12T10:45:39.202Z,16.00
2018-10-12T10:48:07.513Z,16.00
2018-10-12T10:50:35.826Z,15.90
2018-10-12T10:53:04.148Z,15.90
2018-10-12T10:55:32.237Z,16.00
2018-10-12T10:58:01.483Z,16.00
2018-10-12T11:00:29.606Z,16.10
2018-10-12T11:02:57.739Z,16.10
2018-10-12T11:05:25.849Z,16.10
2018-10-12T11:07:54.018Z,16.10
2018-10-12T11:10:22.026Z,16.10
2018-10-12T11:12:50.447Z,16.20
2018-10-12T11:15:19.118Z,16.10
2018-10-12T11:17:47.400Z,16.10
2018-10-12T11:20:15.549Z,16.10
2018-10-12T11:22:43.721Z,16.20
2018-10-12T11:25:11.991Z,16.20
2018-10-12T11:27:40.131Z,16.20
2018-10-12T11:30:08.256Z,16.20
2018-10-12T11:32:36.632Z,16.30
2018-10-12T11:35:05.828Z,16.30
2018-10-12T11:37:33.796Z,16.40
2018-10-12T11:40:01.855Z,16.40
2018-10-12T11:43:39.004Z,16.40
2018-10-12T11:46:07.143Z,16.40
2018-10-12T11:48:35.488Z,16.40
2018-10-12T11:51:03.486Z,16.50
2018-10-12T11:53:31.530Z,16.50
2018-10-12T11:55:59.486Z,16.50
2018-10-12T11:58:28.501Z,16.60
2018-10-12T12:00:56.752Z,16.60
2018-10-12T12:03:25.260Z,16.80
2018-10-12T12:05:53.183Z,16.90
2018-10-12T12:08:21.245Z,16.90
2018-10-12T12:10:49.379Z,16.90
2018-10-12T12:13:17.538Z,17.00
2018-10-12T12:15:45.668Z,17.00
2018-10-12T12:18:13.720Z,17.10
2018-10-12T12:20:41.872Z,17.20
2018-10-12T12:23:09.985Z,17.30
2018-10-12T12:25:38.218Z,17.40
2018-10-12T12:28:06.486Z,17.40
2018-10-12T12:30:34.698Z,17.50
2018-10-12T12:33:03.011Z,17.90
2018-10-12T12:35:31.326Z,18.50
2018-10-12T12:37:59.238Z,19.00
2018-10-12T12:40:27.395Z,19.70
2018-10-12T12:42:55.620Z,20.30
2018-10-12T12:45:23.974Z,20.70
2018-10-12T12:47:52.091Z,20.80
2018-10-12T12:50:20.118Z,21.10
2018-10-12T12:52:48.493Z,20.50
2018-10-12T12:55:16.592Z,20.10
2018-10-12T12:57:44.819Z,20.20
2018-10-12T13:00:13.154Z,19.80
2018-10-12T13:02:41.165Z,19.10
2018-10-12T13:05:09.401Z,18.50
2018-10-12T13:07:37.552Z,18.10
2018-10-12T13:10:05.686Z,17.80
2018-10-12T13:12:33.775Z,17.50
2018-10-12T13:15:01.899Z,17.40
2018-10-12T13:17:29.947Z,17.30
2018-10-12T13:22:35.976Z,17.20
2018-10-12T13:25:04.016Z,17.10
2018-10-12T13:27:32.369Z,16.90
2018-10-12T13:30:00.608Z,16.90
2018-10-12T13:32:28.700Z,16.80
2018-10-12T13:34:56.714Z,16.70
2018-10-12T13:37:24.679Z,16.60
2018-10-12T13:39:52.681Z,16.60
2018-10-12T13:42:20.591Z,16.60
2018-10-12T13:44:48.802Z,16.50
2018-10-12T13:47:16.883Z,16.40
2018-10-12T13:49:44.933Z,16.30
2018-10-12T13:52:13.085Z,16.30
2018-10-12T13:54:41.170Z,16.30
2018-10-12T13:57:10.471Z,16.20
2018-10-12T13:59:38.446Z,16.20
2018-10-12T14:02:06.554Z,16.10
2018-10-12T14:04:34.471Z,16.10
2018-10-12T14:07:02.536Z,16.10
2018-10-12T14:09:31.183Z,16.00
2018-10-12T14:11:59.261Z,15.90
2018-10-12T14:14:27.295Z,15.90
2018-10-12T14:16:55.286Z,15.80
2018-10-12T14:19:23.698Z,15.80
2018-10-12T14:21:51.556Z,15.70
2018-10-12T14:24:19.674Z,15.60
2018-10-12T14:26:47.925Z,15.60
2018-10-12T14:29:15.842Z,15.50
2018-10-12T14:31:44.863Z,15.50
2018-10-12T14:34:12.932Z,15.40
2018-10-12T14:36:40.992Z,15.40
2018-10-12T14:39:10.346Z,15.40
2018-10-12T14:41:38.509Z,15.40
2018-10-12T14:44:07.547Z,15.30
2018-10-12T14:46:35.455Z,15.30
2018-10-12T14:49:03.602Z,15.30
2018-10-12T14:51:31.698Z,15.20
2018-10-12T14:54:00.448Z,15.20
2018-10-12T14:56:28.530Z,15.10
2018-10-12T14:58:56.719Z,15.00
2018-10-12T15:01:24.863Z,15.00
2018-10-12T15:03:52.913Z,15.00
2018-10-12T15:06:21.066Z,14.90
2018-10-12T15:08:49.289Z,14.90
2018-10-12T15:11:17.582Z,14.80
2018-10-12T15:13:45.673Z,14.80
2018-10-12T15:16:13.810Z,14.80
2018-10-12T15:18:41.941Z,14.70
2018-10-12T15:21:10.144Z,14.70
2018-10-12T15:23:38.069Z,14.60
2018-10-12T15:26:11.748Z,14.50
2018-10-12T15:28:39.846Z,14.40
2018-10-12T15:31:07.889Z,14.40
2018-10-12T15:33:36.448Z,14.30
2018-10-12T15:36:04.425Z,14.20
2018-10-12T15:38:32.451Z,14.20
2018-10-12T15:41:00.347Z,14.10
2018-10-12T15:43:28.348Z,14.10
2018-10-12T15:45:56.977Z,14.10
2018-10-12T15:48:25.070Z,14.00
2018-10-12T15:50:53.889Z,13.90
2018-10-12T15:53:21.987Z,13.80
2018-10-12T15:55:50.243Z,13.80
2018-10-12T15:58:18.844Z,13.70
2018-10-12T16:00:47.078Z,13.60
2018-10-12T16:03:15.408Z,13.60
2018-10-12T16:05:43.396Z,13.50
2018-10-12T16:08:11.614Z,13.40
2018-10-12T16:10:39.925Z,13.30
2018-10-12T16:13:08.203Z,13.30
2018-10-12T16:15:36.225Z,13.20
2018-10-12T16:18:04.253Z,13.10
2018-10-12T16:20:32.335Z,13.00
2018-10-12T16:23:00.442Z,13.00
2018-10-12T16:26:05.115Z,13.00
2018-10-12T16:28:33.140Z,12.90
2018-10-12T16:31:03.340Z,12.80
2018-10-12T16:33:31.778Z,12.70
2018-10-12T16:36:00.331Z,12.70
2018-10-12T16:38:28.518Z,12.60
2018-10-12T16:40:56.477Z,12.60
2018-10-12T16:43:24.427Z,12.60
2018-10-12T16:45:52.759Z,12.50
2018-10-12T16:48:20.757Z,12.50
2018-10-12T16:50:48.966Z,12.50
2018-10-12T16:53:16.940Z,12.50
2018-10-12T16:55:45.009Z,12.50
2018-10-12T16:58:13.984Z,12.50
2018-10-12T17:00:42.221Z,12.40
2018-10-12T17:03:10.222Z,12.30
2018-10-12T17:05:38.762Z,12.30
2018-10-12T17:08:06.900Z,12.30
2018-10-12T17:10:35.394Z,12.20
2018-10-12T17:13:03.526Z,12.10
2018-10-12T17:15:31.715Z,12.10
2018-10-12T17:18:00.993Z,12.10
2018-10-12T17:20:29.071Z,12.10
2018-10-12T17:22:57.184Z,12.10
2018-10-12T17:25:25.675Z,12.00
2018-10-12T17:27:53.927Z,12.00
2018-10-12T17:30:22.516Z,12.00
2018-10-12T17:32:50.574Z,11.90
2018-10-12T17:35:19.125Z,11.90
2018-10-12T17:37:47.328Z,11.90
2018-10-12T17:40:15.438Z,11.90
2018-10-12T17:42:43.476Z,11.90
2018-10-12T17:45:12.060Z,11.80
2018-10-12T17:47:40.420Z,11.70
2018-10-12T17:50:08.542Z,11.80
2018-10-12T17:52:36.522Z,11.80
2018-10-12T17:55:04.862Z,11.80
2018-10-12T17:57:34.150Z,11.70
2018-10-12T18:00:02.311Z,11.70
2018-10-12T18:02:30.194Z,11.70
2018-10-12T18:04:58.438Z,11.70
2018-10-12T18:07:26.386Z,11.70
2018-10-12T18:09:54.279Z,11.70
2018-10-12T18:12:22.288Z,11.70
2018-10-12T18:14:50.375Z,11.70
2018-10-12T18:17:18.490Z,11.70
2018-10-12T18:19:46.525Z,11.70
2018-10-12T18:22:14.667Z,11.70
2018-10-12T18:24:42.717Z,11.70
2018-10-12T18:27:10.622Z,11.70
2018-10-12T18:29:38.723Z,11.70
2018-10-12T18:32:07.206Z,11.70
2018-10-12T18:34:35.273Z,11.70
2018-10-12T18:37:03.318Z,11.60
2018-10-12T18:39:31.343Z,11.70
2018-10-12T18:42:00.136Z,11.70
2018-10-12T18:44:28.098Z,11.70
2018-10-12T18:46:55.976Z,11.60
2018-10-12T18:49:24.003Z,11.70
2018-10-12T18:51:52.024Z,11.70
2018-10-12T18:54:20.194Z,11.70
2018-10-12T18:56:48.373Z,11.70
2018-10-12T18:59:16.270Z,11.70
2018-10-12T19:01:44.143Z,11.70
2018-10-12T19:04:12.174Z,11.70
2018-10-12T19:06:40.432Z,11.70
2018-10-12T19:09:09.807Z,11.70
2018-10-12T19:11:38.977Z,11.60
2018-10-12T19:14:07.348Z,11.70
2018-10-12T19:16:35.346Z,11.70
2018-10-12T19:19:03.575Z,11.70
2018-10-12T19:21:31.542Z,11.80
2018-10-12T19:23:59.613Z,11.70
2018-10-12T19:26:27.576Z,11.70
2018-10-12T19:28:55.701Z,11.70
2018-10-12T19:31:23.761Z,11.80
2018-10-12T19:33:51.826Z,11.80
2018-10-12T19:36:19.755Z,11.80
2018-10-12T19:38:47.963Z,11.70
2018-10-12T19:41:16.111Z,11.80
2018-10-12T19:43:44.182Z,11.80
2018-10-12T19:46:12.144Z,11.80
2018-10-12T19:48:40.233Z,11.80
2018-10-12T19:51:08.154Z,11.80
2018-10-12T19:53:36.081Z,11.80
2018-10-12T19:56:04.090Z,11.90
2018-10-12T19:58:32.152Z,11.90
2018-10-12T20:01:00.060Z,12.00
2018-10-12T20:03:28.876Z,12.00
2018-10-12T20:05:56.920Z,12.00
2018-10-12T20:08:25.144Z,11.90
2018-10-12T20:10:53.277Z,12.00
2018-10-12T20:13:21.347Z,11.90
2018-10-12T20:15:49.528Z,12.00
2018-10-12T20:18:17.859Z,12.00
2018-10-12T20:20:45.719Z,11.90
2018-10-12T20:23:13.779Z,12.00
2018-10-12T20:25:41.846Z,12.00
2018-10-12T20:28:09.866Z,12.00
2018-10-12T20:30:37.861Z,12.00
2018-10-12T20:33:05.932Z,12.00
2018-10-12T20:35:33.898Z,11.90
2018-10-12T20:38:02.331Z,11.80
2018-10-12T20:40:30.342Z,11.80
2018-10-12T20:42:58.490Z,11.80
2018-10-12T20:45:26.385Z,11.80
2018-10-12T20:47:54.400Z,11.80
2018-10-12T20:50:22.648Z,11.80
2018-10-12T20:52:50.688Z,11.80
2018-10-12T20:55:19.153Z,11.80
2018-10-12T20:57:48.579Z,11.80
2018-10-12T21:00:18.158Z,11.80
2018-10-12T21:02:46.540Z,11.80
2018-10-12T21:05:14.567Z,11.80
2018-10-12T21:07:43.661Z,11.80
2018-10-12T21:10:12.232Z,11.80
2018-10-12T21:12:40.263Z,11.70
2018-10-12T21:15:08.286Z,11.70
2018-10-12T21:17:36.711Z,11.70
2018-10-12T21:20:05.286Z,11.70
2018-10-12T21:22:33.508Z,11.60
2018-10-12T21:25:01.547Z,11.60
2018-10-12T21:27:29.688Z,11.60
2018-10-12T21:29:57.727Z,11.60
2018-10-12T21:32:25.903Z,11.50
2018-10-12T21:34:54.059Z,11.60
2018-10-12T21:37:22.804Z,11.60
2018-10-12T21:39:50.946Z,11.50
2018-10-12T21:42:19.130Z,11.60
2018-10-12T21:44:47.646Z,11.60
2018-10-12T21:47:15.933Z,11.60
2018-10-12T21:49:43.968Z,11.60
2018-10-12T21:52:12.162Z,11.60
2018-10-12T21:54:40.253Z,11.60
2018-10-12T21:57:08.525Z,11.60
2018-10-12T21:59:36.839Z,11.60
2018-10-12T22:02:04.945Z,11.50
2018-10-12T22:04:36.081Z,11.60
2018-10-12T22:07:04.017Z,11.50
2018-10-12T22:09:32.080Z,11.50
2018-10-12T22:12:00.126Z,11.50
2018-10-12T22:14:28.345Z,11.40
2018-10-12T22:16:57.284Z,11.40
2018-10-12T22:19:25.343Z,11.40
2018-10-12T22:21:53.647Z,11.40
2018-10-12T22:24:21.733Z,11.40
2018-10-12T22:26:49.919Z,11.40
2018-10-12T22:29:17.948Z,11.40
2018-10-12T22:31:45.984Z,11.40
2018-10-12T22:34:14.069Z,11.40
2018-10-12T22:36:42.093Z,11.40
2018-10-12T22:39:10.868Z,11.40
2018-10-12T22:41:38.889Z,11.40
2018-10-12T22:44:06.980Z,11.40
2018-10-12T22:46:35.209Z,11.40
2018-10-12T22:49:03.229Z,11.40
2018-10-12T22:51:31.299Z,11.30
2018-10-12T22:53:59.378Z,11.30
2018-10-12T22:56:27.378Z,11.30
2018-10-12T22:58:55.348Z,11.30
2018-10-12T23:01:23.763Z,11.20
2018-10-12T23:03:51.786Z,11.20
2018-10-12T23:06:19.827Z,11.20
2018-10-12T23:08:48.141Z,11.20
2018-10-12T23:11:16.204Z,11.20
2018-10-12T23:13:44.306Z,11.20
2018-10-12T23:16:12.461Z,11.10
2018-10-12T23:18:40.565Z,11.10
2018-10-12T23:21:08.609Z,11.10
2018-10-12T23:23:37.015Z,11.10
2018-10-12T23:26:05.605Z,11.10
2018-10-12T23:28:33.625Z,11.10
2018-10-12T23:31:01.697Z,11.00
2018-10-12T23:33:40.769Z,11.00
2018-10-12T23:36:08.846Z,11.00
2018-10-12T23:38:36.971Z,11.00
2018-10-12T23:41:05.070Z,11.00
2018-10-12T23:43:33.146Z,11.00
2018-10-12T23:46:01.177Z,11.00
2018-10-12T23:48:29.205Z,11.00
2018-10-12T23:50:57.315Z,10.90
2018-10-12T23:53:32.054Z,10.90
2018-10-12T23:56:00.207Z,10.90
2018-10-12T23:58:28.308Z,10.90
